createdAt,value
2016-08-14T00:00:44.017Z,0
2016-08-14T00:01:43.308Z,0
2016-08-14T00:02:43.350Z,0
2016-08-14T00:03:43.387Z,0
2016-08-14T00:04:43.389Z,0
2016-08-14T00:05:43.439Z,0
2016-08-14T00:06:43.462Z,0
2016-08-14T00:07:44.208Z,0
2016-08-14T00:08:43.515Z,0
2016-08-14T00:09:43.575Z,0
2016-08-14T00:10:43.557Z,0
2016-08-14T00:11:44.297Z,0
2016-08-14T00:12:43.646Z,0
2016-08-14T00:13:43.658Z,0
2016-08-14T00:14:43.682Z,0
2016-08-14T00:15:43.688Z,0
2016-08-14T00:16:43.716Z,0
2016-08-14T00:17:43.743Z,0
2016-08-14T00:18:44.484Z,0
2016-08-14T00:19:44.510Z,0
2016-08-14T00:20:44.536Z,0
2016-08-14T00:21:43.852Z,0
2016-08-14T00:22:43.896Z,0
2016-08-14T00:23:43.904Z,0
2016-08-14T00:24:44.646Z,0
2016-08-14T00:25:43.972Z,0
2016-08-14T00:26:44.000Z,0
2016-08-14T00:27:44.028Z,0
2016-08-14T00:28:44.764Z,0
2016-08-14T00:29:44.090Z,0
2016-08-14T00:30:44.111Z,0
2016-08-14T00:31:44.126Z,0
2016-08-14T00:32:44.155Z,0
2016-08-14T00:33:44.902Z,0
2016-08-14T00:34:44.216Z,0
2016-08-14T00:35:44.944Z,0
2016-08-14T00:36:44.258Z,0
2016-08-14T00:37:45.017Z,0
2016-08-14T00:38:44.329Z,0
2016-08-14T00:39:45.049Z,0
2016-08-14T00:40:44.359Z,0
2016-08-14T00:41:44.387Z,0
2016-08-14T00:42:44.419Z,0
2016-08-14T00:43:45.153Z,0
2016-08-14T00:44:44.468Z,0
2016-08-14T00:45:45.918Z,0
2016-08-14T00:46:44.544Z,0
2016-08-14T00:47:44.550Z,0
2016-08-14T00:48:44.577Z,0
2016-08-14T00:49:44.601Z,0
2016-08-14T00:50:44.634Z,0
2016-08-14T00:51:45.379Z,0
2016-08-14T00:52:44.683Z,0
2016-08-14T00:53:44.709Z,0
2016-08-14T00:54:44.738Z,0
2016-08-14T00:55:45.476Z,0
2016-08-14T00:56:44.792Z,0
2016-08-14T00:57:45.525Z,0
2016-08-14T00:58:44.850Z,0
2016-08-14T00:59:44.871Z,0
2016-08-14T01:00:45.612Z,0
2016-08-14T01:01:44.933Z,0
2016-08-14T01:02:44.951Z,0
2016-08-14T01:03:44.994Z,0
2016-08-14T01:04:45.007Z,0
2016-08-14T01:05:45.741Z,0
2016-08-14T01:06:45.064Z,0
2016-08-14T01:07:45.085Z,0
2016-08-14T01:08:45.112Z,0
2016-08-14T01:09:45.138Z,0
2016-08-14T01:10:45.168Z,0
2016-08-14T01:11:45.192Z,0
2016-08-14T01:12:45.218Z,0
2016-08-14T01:13:45.251Z,0
2016-08-14T01:14:45.280Z,0
2016-08-14T01:15:46.018Z,0
2016-08-14T01:16:45.331Z,0
2016-08-14T01:17:45.353Z,0
2016-08-14T01:18:45.376Z,0
2016-08-14T01:19:45.403Z,0
2016-08-14T01:20:46.146Z,0
2016-08-14T01:21:45.460Z,0
2016-08-14T01:22:45.515Z,0
2016-08-14T01:23:45.522Z,0
2016-08-14T01:24:46.263Z,0
2016-08-14T01:25:46.283Z,0
2016-08-14T01:26:45.596Z,0
2016-08-14T01:27:45.622Z,0
2016-08-14T01:28:45.645Z,0
2016-08-14T01:29:45.669Z,0
2016-08-14T01:30:46.425Z,0
2016-08-14T01:31:45.730Z,0
2016-08-14T01:32:46.468Z,0
2016-08-14T01:33:45.782Z,0
2016-08-14T01:34:45.802Z,0
2016-08-14T01:35:45.828Z,0
2016-08-14T01:36:45.859Z,0
2016-08-14T01:37:45.885Z,0
2016-08-14T01:38:45.929Z,0
2016-08-14T01:39:46.669Z,0
2016-08-14T01:40:45.967Z,0
2016-08-14T01:41:45.992Z,0
2016-08-14T01:42:46.017Z,0
2016-08-14T01:43:46.047Z,0
2016-08-14T01:44:46.078Z,0
2016-08-14T01:45:46.098Z,0
2016-08-14T01:46:46.131Z,0
2016-08-14T01:47:46.159Z,0
2016-08-14T01:48:46.886Z,0
2016-08-14T01:49:46.205Z,0
2016-08-14T01:50:46.231Z,0
2016-08-14T01:51:46.971Z,0
2016-08-14T01:52:46.292Z,0
2016-08-14T01:53:46.308Z,0
2016-08-14T01:54:46.344Z,0
2016-08-14T01:55:46.375Z,0
2016-08-14T01:56:46.389Z,0
2016-08-14T01:57:46.421Z,0
2016-08-14T01:58:46.441Z,0
2016-08-14T01:59:46.469Z,0
2016-08-14T02:00:46.497Z,0
2016-08-14T02:01:46.523Z,0
2016-08-14T02:02:46.550Z,0
2016-08-14T02:03:46.593Z,0
2016-08-14T02:04:46.606Z,0
2016-08-14T02:05:46.627Z,0
2016-08-14T02:06:46.650Z,0
2016-08-14T02:07:47.385Z,0
2016-08-14T02:08:46.707Z,0
2016-08-14T02:09:46.741Z,0
2016-08-14T02:10:47.472Z,0
2016-08-14T02:11:47.495Z,0
2016-08-14T02:12:46.820Z,0
2016-08-14T02:13:47.545Z,0
2016-08-14T02:14:46.859Z,0
2016-08-14T02:15:48.309Z,0
2016-08-14T02:16:46.911Z,0
2016-08-14T02:17:46.941Z,0
2016-08-14T02:18:46.975Z,0
2016-08-14T02:19:48.415Z,0
2016-08-14T02:20:47.035Z,0
2016-08-14T02:21:47.061Z,0
2016-08-14T02:22:47.779Z,0
2016-08-14T02:23:47.097Z,0
2016-08-14T02:24:47.837Z,0
2016-08-14T02:25:47.153Z,0
2016-08-14T02:26:47.177Z,0
2016-08-14T02:27:47.210Z,0
2016-08-14T02:28:47.228Z,0
2016-08-14T02:29:47.250Z,0
2016-08-14T02:30:47.278Z,0
2016-08-14T02:31:47.308Z,0
2016-08-14T02:32:47.329Z,0
2016-08-14T02:33:47.358Z,0
2016-08-14T02:34:47.396Z,0
2016-08-14T02:35:47.417Z,0
2016-08-14T02:36:47.446Z,0
2016-08-14T02:37:48.174Z,0
2016-08-14T02:38:48.199Z,0
2016-08-14T02:39:47.517Z,0
2016-08-14T02:40:47.544Z,0
2016-08-14T02:41:47.651Z,0
2016-08-14T02:42:48.317Z,0
2016-08-14T02:43:47.621Z,0
2016-08-14T02:44:48.359Z,0
2016-08-14T02:45:48.380Z,0
2016-08-14T02:46:47.699Z,0
2016-08-14T02:47:47.748Z,0
2016-08-14T02:48:47.750Z,0
2016-08-14T02:49:47.776Z,0
2016-08-14T02:50:47.831Z,0
2016-08-14T02:51:47.833Z,0
2016-08-14T02:52:48.564Z,0
2016-08-14T02:53:49.322Z,0
2016-08-14T02:54:47.906Z,0
2016-08-14T02:55:47.933Z,0
2016-08-14T02:56:47.965Z,0
2016-08-14T02:57:48.697Z,0
2016-08-14T02:58:48.724Z,0
2016-08-14T02:59:48.059Z,0
2016-08-14T03:00:48.090Z,0
2016-08-14T03:01:48.099Z,0
2016-08-14T03:02:48.124Z,0
2016-08-14T03:03:48.152Z,0
2016-08-14T03:04:48.171Z,0
2016-08-14T03:05:48.910Z,0
2016-08-14T03:06:48.933Z,0
2016-08-14T03:07:48.997Z,0
2016-08-14T03:08:48.279Z,0
2016-08-14T03:09:48.299Z,0
2016-08-14T03:10:48.324Z,0
2016-08-14T03:11:48.353Z,0
2016-08-14T03:12:48.386Z,0
2016-08-14T03:13:49.116Z,0
2016-08-14T03:14:49.143Z,0
2016-08-14T03:15:48.458Z,0
2016-08-14T03:16:48.497Z,0
2016-08-14T03:17:49.925Z,0
2016-08-14T03:18:48.533Z,0
2016-08-14T03:19:48.562Z,0
2016-08-14T03:20:48.589Z,0
2016-08-14T03:21:48.615Z,0
2016-08-14T03:22:48.655Z,0
2016-08-14T03:23:48.668Z,0
2016-08-14T03:24:48.713Z,0
2016-08-14T03:25:48.736Z,0
2016-08-14T03:26:48.741Z,0
2016-08-14T03:27:49.488Z,0
2016-08-14T03:28:49.517Z,0
2016-08-14T03:29:49.534Z,0
2016-08-14T03:30:49.575Z,0
2016-08-14T03:31:48.876Z,0
2016-08-14T03:32:48.990Z,0
2016-08-14T03:33:48.927Z,0
2016-08-14T03:34:49.664Z,0
2016-08-14T03:35:49.690Z,0
2016-08-14T03:36:49.715Z,0
2016-08-14T03:37:49.755Z,0
2016-08-14T03:38:49.058Z,0
2016-08-14T03:39:49.792Z,0
2016-08-14T03:40:49.109Z,0
2016-08-14T03:41:49.850Z,0
2016-08-14T03:42:49.158Z,0
2016-08-14T03:43:49.184Z,0
2016-08-14T03:44:49.212Z,0
2016-08-14T03:45:49.250Z,0
2016-08-14T03:46:49.261Z,0
2016-08-14T03:47:49.292Z,0
2016-08-14T03:48:49.316Z,0
2016-08-14T03:49:49.346Z,0
2016-08-14T03:50:51.503Z,0
2016-08-14T03:51:49.394Z,0
2016-08-14T03:52:49.424Z,0
2016-08-14T03:53:50.178Z,0
2016-08-14T03:54:50.183Z,0
2016-08-14T03:55:49.493Z,0
2016-08-14T03:56:50.937Z,0
2016-08-14T03:57:49.552Z,0
2016-08-14T03:58:49.574Z,0
2016-08-14T03:59:49.603Z,0
2016-08-14T04:00:50.343Z,0
2016-08-14T04:01:49.654Z,0
2016-08-14T04:02:49.702Z,4
2016-08-14T04:03:49.709Z,4
2016-08-14T04:04:49.728Z,0
2016-08-14T04:05:49.760Z,0
2016-08-14T04:06:49.784Z,0
2016-08-14T04:07:49.805Z,0
2016-08-14T04:08:49.833Z,4
2016-08-14T04:09:49.871Z,4
2016-08-14T04:10:49.888Z,4
2016-08-14T04:11:49.927Z,0
2016-08-14T04:12:49.943Z,0
2016-08-14T04:13:49.964Z,0
2016-08-14T04:14:49.991Z,4
2016-08-14T04:15:50.013Z,4
2016-08-14T04:16:50.748Z,0
2016-08-14T04:17:50.784Z,0
2016-08-14T04:18:50.806Z,4
2016-08-14T04:19:50.114Z,4
2016-08-14T04:20:50.161Z,4
2016-08-14T04:21:50.177Z,0
2016-08-14T04:22:50.198Z,4
2016-08-14T04:23:51.648Z,4
2016-08-14T04:24:50.960Z,4
2016-08-14T04:25:50.274Z,4
2016-08-14T04:26:50.301Z,4
2016-08-14T04:27:50.325Z,4
2016-08-14T04:28:50.351Z,4
2016-08-14T04:29:50.374Z,4
2016-08-14T04:30:50.403Z,4
2016-08-14T04:31:51.147Z,4
2016-08-14T04:32:50.457Z,8
2016-08-14T04:33:50.501Z,4
2016-08-14T04:34:50.507Z,4
2016-08-14T04:35:50.536Z,8
2016-08-14T04:36:50.565Z,4
2016-08-14T04:37:51.290Z,4
2016-08-14T04:38:50.607Z,8
2016-08-14T04:39:50.639Z,8
2016-08-14T04:40:51.371Z,4
2016-08-14T04:41:50.688Z,8
2016-08-14T04:42:50.726Z,8
2016-08-14T04:43:50.747Z,8
2016-08-14T04:44:50.768Z,8
2016-08-14T04:45:51.502Z,12
2016-08-14T04:46:50.811Z,8
2016-08-14T04:47:50.839Z,8
2016-08-14T04:48:50.876Z,8
2016-08-14T04:49:50.893Z,12
2016-08-14T04:50:51.667Z,8
2016-08-14T04:51:50.947Z,8
2016-08-14T04:52:51.679Z,8
2016-08-14T04:53:50.997Z,12
2016-08-14T04:54:51.023Z,12
2016-08-14T04:55:51.049Z,8
2016-08-14T04:56:51.075Z,8
2016-08-14T04:57:51.115Z,8
2016-08-14T04:58:51.837Z,8
2016-08-14T04:59:51.164Z,12
2016-08-14T05:00:51.895Z,12
2016-08-14T05:01:51.203Z,12
2016-08-14T05:02:51.234Z,12
2016-08-14T05:03:51.260Z,12
2016-08-14T05:04:51.992Z,12
2016-08-14T05:05:51.313Z,12
2016-08-14T05:06:51.343Z,8
2016-08-14T05:07:52.094Z,12
2016-08-14T05:08:51.404Z,8
2016-08-14T05:09:52.123Z,12
2016-08-14T05:10:51.448Z,12
2016-08-14T05:11:52.175Z,12
2016-08-14T05:12:51.495Z,12
2016-08-14T05:13:51.517Z,12
2016-08-14T05:14:52.251Z,12
2016-08-14T05:15:52.281Z,12
2016-08-14T05:16:51.597Z,16
2016-08-14T05:17:51.624Z,12
2016-08-14T05:18:52.365Z,16
2016-08-14T05:19:51.675Z,12
2016-08-14T05:20:51.705Z,16
2016-08-14T05:21:52.441Z,12
2016-08-14T05:22:52.463Z,16
2016-08-14T05:23:51.786Z,16
2016-08-14T05:24:51.807Z,16
2016-08-14T05:25:52.544Z,16
2016-08-14T05:26:53.290Z,16
2016-08-14T05:27:51.886Z,16
2016-08-14T05:28:51.924Z,20
2016-08-14T05:29:51.936Z,16
2016-08-14T05:30:51.967Z,16
2016-08-14T05:31:51.987Z,20
2016-08-14T05:32:52.018Z,20
2016-08-14T05:33:52.037Z,20
2016-08-14T05:34:52.069Z,20
2016-08-14T05:35:52.097Z,20
2016-08-14T05:36:52.134Z,24
2016-08-14T05:37:52.147Z,24
2016-08-14T05:38:52.888Z,28
2016-08-14T05:39:52.200Z,24
2016-08-14T05:40:52.234Z,28
2016-08-14T05:41:52.252Z,32
2016-08-14T05:42:52.271Z,32
2016-08-14T05:43:52.309Z,32
2016-08-14T05:44:52.332Z,32
2016-08-14T05:45:52.363Z,28
2016-08-14T05:46:52.385Z,24
2016-08-14T05:47:52.410Z,32
2016-08-14T05:48:52.433Z,20
2016-08-14T05:49:53.174Z,24
2016-08-14T05:50:52.485Z,24
2016-08-14T05:51:52.515Z,24
2016-08-14T05:52:52.540Z,24
2016-08-14T05:53:52.587Z,32
2016-08-14T05:54:52.594Z,36
2016-08-14T05:55:52.619Z,36
2016-08-14T05:56:52.642Z,40
2016-08-14T05:57:52.670Z,40
2016-08-14T05:58:52.695Z,28
2016-08-14T05:59:52.724Z,28
2016-08-14T06:00:52.759Z,28
2016-08-14T06:01:52.779Z,28
2016-08-14T06:02:52.809Z,28
2016-08-14T06:03:52.833Z,28
2016-08-14T06:04:52.854Z,28
2016-08-14T06:05:52.881Z,28
2016-08-14T06:06:52.926Z,28
2016-08-14T06:07:52.942Z,32
2016-08-14T06:08:52.967Z,32
2016-08-14T06:09:52.989Z,32
2016-08-14T06:10:53.738Z,36
2016-08-14T06:11:53.047Z,32
2016-08-14T06:12:53.090Z,32
2016-08-14T06:13:53.096Z,40
2016-08-14T06:14:53.127Z,48
2016-08-14T06:15:53.148Z,52
2016-08-14T06:16:54.087Z,56
2016-08-14T06:17:53.205Z,56
2016-08-14T06:18:53.243Z,56
2016-08-14T06:19:53.265Z,64
2016-08-14T06:20:53.297Z,64
2016-08-14T06:21:53.309Z,60
2016-08-14T06:22:53.344Z,64
2016-08-14T06:23:53.366Z,68
2016-08-14T06:24:53.393Z,68
2016-08-14T06:25:53.415Z,68
2016-08-14T06:26:53.461Z,72
2016-08-14T06:27:53.482Z,72
2016-08-14T06:28:53.500Z,68
2016-08-14T06:29:54.234Z,72
2016-08-14T06:30:53.549Z,72
2016-08-14T06:31:53.588Z,72
2016-08-14T06:32:53.608Z,76
2016-08-14T06:33:53.633Z,76
2016-08-14T06:34:53.675Z,80
2016-08-14T06:35:53.696Z,80
2016-08-14T06:36:53.720Z,84
2016-08-14T06:37:53.746Z,84
2016-08-14T06:38:53.767Z,88
2016-08-14T06:39:53.800Z,88
2016-08-14T06:40:53.837Z,88
2016-08-14T06:41:53.846Z,88
2016-08-14T06:42:53.893Z,96
2016-08-14T06:43:53.914Z,96
2016-08-14T06:44:53.950Z,100
2016-08-14T06:45:53.970Z,108
2016-08-14T06:46:53.991Z,112
2016-08-14T06:47:54.027Z,108
2016-08-14T06:48:54.056Z,108
2016-08-14T06:49:54.075Z,108
2016-08-14T06:50:54.811Z,112
2016-08-14T06:51:54.132Z,112
2016-08-14T06:52:54.306Z,112
2016-08-14T06:53:54.180Z,116
2016-08-14T06:54:54.212Z,120
2016-08-14T06:55:54.243Z,120
2016-08-14T06:56:54.266Z,128
2016-08-14T06:57:54.298Z,132
2016-08-14T06:59:09.235Z,132
2016-08-14T06:59:55.054Z,128
2016-08-14T07:00:54.376Z,132
2016-08-14T07:01:54.408Z,128
2016-08-14T07:02:54.430Z,128
2016-08-14T07:03:54.477Z,128
2016-08-14T07:04:54.494Z,132
2016-08-14T07:05:54.538Z,132
2016-08-14T07:06:55.255Z,136
2016-08-14T07:07:54.578Z,136
2016-08-14T07:08:54.599Z,136
2016-08-14T07:09:54.634Z,140
2016-08-14T07:10:55.361Z,144
2016-08-14T07:11:54.685Z,144
2016-08-14T07:12:54.716Z,144
2016-08-14T07:13:54.756Z,148
2016-08-14T07:14:55.480Z,144
2016-08-14T07:15:54.797Z,132
2016-08-14T07:16:54.822Z,144
2016-08-14T07:17:56.285Z,152
2016-08-14T07:18:55.591Z,152
2016-08-14T07:19:54.911Z,148
2016-08-14T07:20:54.966Z,148
2016-08-14T07:21:55.705Z,156
2016-08-14T07:22:55.001Z,156
2016-08-14T07:23:55.758Z,160
2016-08-14T07:24:55.769Z,160
2016-08-14T07:25:55.090Z,140
2016-08-14T07:26:55.108Z,168
2016-08-14T07:27:55.139Z,168
2016-08-14T07:28:55.181Z,172
2016-08-14T07:29:55.202Z,176
2016-08-14T07:30:55.938Z,176
2016-08-14T07:31:55.253Z,184
2016-08-14T07:32:55.281Z,184
2016-08-14T07:33:56.021Z,184
2016-08-14T07:34:56.048Z,188
2016-08-14T07:35:56.083Z,176
2016-08-14T07:36:55.396Z,168
2016-08-14T07:37:55.424Z,180
2016-08-14T07:38:56.164Z,196
2016-08-14T07:39:56.202Z,196
2016-08-14T07:40:55.528Z,200
2016-08-14T07:41:55.545Z,208
2016-08-14T07:42:55.570Z,204
2016-08-14T07:43:55.597Z,208
2016-08-14T07:44:55.626Z,200
2016-08-14T07:45:56.365Z,208
2016-08-14T07:46:56.393Z,188
2016-08-14T07:47:55.725Z,196
2016-08-14T07:48:55.748Z,208
2016-08-14T07:49:55.781Z,204
2016-08-14T07:50:56.504Z,200
2016-08-14T07:51:55.830Z,188
2016-08-14T07:52:55.856Z,188
2016-08-14T07:53:55.882Z,172
2016-08-14T07:54:55.930Z,208
2016-08-14T07:55:55.950Z,216
2016-08-14T07:56:55.974Z,208
2016-08-14T07:57:56.002Z,224
2016-08-14T07:58:56.034Z,232
2016-08-14T07:59:56.058Z,252
2016-08-14T08:00:56.800Z,260
2016-08-14T08:01:56.141Z,272
2016-08-14T08:02:56.875Z,272
2016-08-14T08:03:56.185Z,272
2016-08-14T08:04:56.237Z,292
2016-08-14T08:05:56.241Z,276
2016-08-14T08:06:56.268Z,284
2016-08-14T08:07:56.300Z,296
2016-08-14T08:08:57.043Z,324
2016-08-14T08:09:57.073Z,312
2016-08-14T08:10:56.403Z,312
2016-08-14T08:11:56.434Z,312
2016-08-14T08:12:56.459Z,280
2016-08-14T08:13:56.471Z,276
2016-08-14T08:14:56.504Z,312
2016-08-14T08:15:56.536Z,436
2016-08-14T08:16:56.566Z,3772
2016-08-14T08:17:57.301Z,3096
2016-08-14T08:18:57.336Z,400
2016-08-14T08:19:56.663Z,356
2016-08-14T08:20:56.685Z,744
2016-08-14T08:21:56.720Z,360
2016-08-14T08:22:56.745Z,336
2016-08-14T08:23:56.773Z,292
2016-08-14T08:24:56.804Z,260
2016-08-14T08:25:57.576Z,268
2016-08-14T08:26:56.871Z,292
2016-08-14T08:27:56.900Z,376
2016-08-14T08:28:56.925Z,2524
2016-08-14T08:29:56.980Z,2712
2016-08-14T08:30:56.984Z,360
2016-08-14T08:31:57.011Z,284
2016-08-14T08:32:57.752Z,260
2016-08-14T08:33:57.085Z,264
2016-08-14T08:34:57.824Z,268
2016-08-14T08:35:57.132Z,272
2016-08-14T08:36:57.183Z,272
2016-08-14T08:37:57.400Z,272
2016-08-14T08:38:57.218Z,272
2016-08-14T08:39:57.959Z,288
2016-08-14T08:40:57.282Z,292
2016-08-14T08:41:57.310Z,284
2016-08-14T08:42:57.344Z,276
2016-08-14T08:43:58.111Z,272
2016-08-14T08:44:57.406Z,272
2016-08-14T08:45:58.143Z,268
2016-08-14T08:46:58.174Z,236
2016-08-14T08:47:57.494Z,248
2016-08-14T08:48:58.233Z,260
2016-08-14T08:49:57.551Z,248
2016-08-14T08:50:58.308Z,260
2016-08-14T08:51:57.618Z,260
2016-08-14T08:52:58.354Z,260
2016-08-14T08:53:58.385Z,264
2016-08-14T08:54:57.703Z,272
2016-08-14T08:55:57.737Z,268
2016-08-14T08:56:57.772Z,260
2016-08-14T08:57:58.515Z,272
2016-08-14T08:58:57.826Z,276
2016-08-14T08:59:57.881Z,272
2016-08-14T09:00:57.887Z,272
2016-08-14T09:02:00.057Z,264
2016-08-14T09:02:57.947Z,264
2016-08-14T09:03:59.397Z,272
2016-08-14T09:04:58.723Z,280
2016-08-14T09:05:58.038Z,296
2016-08-14T09:06:58.801Z,296
2016-08-14T09:07:58.822Z,308
2016-08-14T09:08:58.839Z,316
2016-08-14T09:09:58.872Z,320
2016-08-14T09:10:58.218Z,332
2016-08-14T09:11:58.232Z,400
2016-08-14T09:12:58.255Z,432
2016-08-14T09:13:58.286Z,572
2016-08-14T09:14:59.034Z,368
2016-08-14T09:15:58.344Z,288
2016-08-14T09:16:58.413Z,296
2016-08-14T09:17:58.414Z,292
2016-08-14T09:18:59.859Z,308
2016-08-14T09:19:59.181Z,356
2016-08-14T09:20:59.209Z,372
2016-08-14T09:21:59.242Z,340
2016-08-14T09:22:58.569Z,288
2016-08-14T09:23:59.347Z,276
2016-08-14T09:24:58.627Z,264
2016-08-14T09:25:59.370Z,272
2016-08-14T09:26:58.689Z,272
2016-08-14T09:27:58.722Z,264
2016-08-14T09:28:58.751Z,264
2016-08-14T09:29:58.778Z,264
2016-08-14T09:30:58.818Z,252
2016-08-14T09:31:58.852Z,260
2016-08-14T09:32:59.587Z,260
2016-08-14T09:33:58.911Z,260
2016-08-14T09:35:00.365Z,264
2016-08-14T09:35:58.967Z,264
2016-08-14T09:36:59.006Z,256
2016-08-14T09:37:59.742Z,252
2016-08-14T09:38:59.816Z,252
2016-08-14T09:39:59.112Z,248
2016-08-14T09:40:59.135Z,248
2016-08-14T09:41:59.159Z,248
2016-08-14T09:42:59.191Z,240
2016-08-14T09:43:59.239Z,236
2016-08-14T09:45:00.685Z,240
2016-08-14T09:46:00.022Z,252
2016-08-14T09:47:00.759Z,264
2016-08-14T09:47:59.348Z,260
2016-08-14T09:48:59.384Z,256
2016-08-14T09:50:00.293Z,256
2016-08-14T09:50:59.558Z,252
2016-08-14T09:51:59.472Z,252
2016-08-14T09:53:00.454Z,248
2016-08-14T09:53:59.563Z,248
2016-08-14T09:55:01.732Z,240
2016-08-14T09:55:59.626Z,244
2016-08-14T09:56:59.642Z,248
2016-08-14T09:57:59.663Z,256
2016-08-14T09:58:59.727Z,248
2016-08-14T09:59:59.733Z,256
2016-08-14T10:00:59.755Z,324
2016-08-14T10:01:59.793Z,412
2016-08-14T10:02:59.823Z,316
2016-08-14T10:03:59.858Z,260
2016-08-14T10:04:59.931Z,260
2016-08-14T10:05:59.959Z,276
2016-08-14T10:06:59.974Z,284
2016-08-14T10:08:00.006Z,340
2016-08-14T10:09:00.739Z,296
2016-08-14T10:10:00.048Z,364
2016-08-14T10:11:00.075Z,328
2016-08-14T10:12:00.148Z,256
2016-08-14T10:13:00.865Z,248
2016-08-14T10:14:00.217Z,248
2016-08-14T10:15:00.957Z,248
2016-08-14T10:16:00.247Z,248
2016-08-14T10:17:00.972Z,248
2016-08-14T10:18:01.006Z,248
2016-08-14T10:19:00.334Z,244
2016-08-14T10:20:01.155Z,248
2016-08-14T10:21:00.392Z,244
2016-08-14T10:22:01.156Z,236
2016-08-14T10:23:00.459Z,272
2016-08-14T10:24:01.226Z,356
2016-08-14T10:25:00.542Z,348
2016-08-14T10:26:01.273Z,456
2016-08-14T10:27:01.293Z,260
2016-08-14T10:28:00.615Z,284
2016-08-14T10:29:01.374Z,452
2016-08-14T10:30:00.680Z,236
2016-08-14T10:31:01.449Z,180
2016-08-14T10:32:01.463Z,440
2016-08-14T10:33:01.490Z,252
2016-08-14T10:34:01.533Z,236
2016-08-14T10:35:00.842Z,236
2016-08-14T10:36:00.882Z,240
2016-08-14T10:37:01.619Z,240
2016-08-14T10:38:00.937Z,244
2016-08-14T10:39:01.685Z,252
2016-08-14T10:40:01.724Z,272
2016-08-14T10:41:01.043Z,264
2016-08-14T10:42:01.075Z,280
2016-08-14T10:43:01.102Z,272
2016-08-14T10:44:01.143Z,268
2016-08-14T10:45:01.164Z,260
2016-08-14T10:46:01.303Z,256
2016-08-14T10:47:01.959Z,244
2016-08-14T10:48:02.712Z,240
2016-08-14T10:49:01.294Z,236
2016-08-14T10:50:01.339Z,232
2016-08-14T10:51:02.074Z,232
2016-08-14T10:52:02.102Z,172
2016-08-14T10:53:01.430Z,236
2016-08-14T10:54:01.465Z,244
2016-08-14T10:55:01.533Z,244
2016-08-14T10:56:01.527Z,248
2016-08-14T10:57:01.558Z,248
2016-08-14T10:58:01.588Z,220
2016-08-14T10:59:02.336Z,136
2016-08-14T11:00:02.364Z,252
2016-08-14T11:01:01.682Z,256
2016-08-14T11:02:01.719Z,240
2016-08-14T11:03:01.770Z,256
2016-08-14T11:04:01.895Z,252
2016-08-14T11:05:03.268Z,248
2016-08-14T11:06:01.854Z,240
2016-08-14T11:07:01.883Z,240
2016-08-14T11:08:03.337Z,248
2016-08-14T11:09:01.955Z,252
2016-08-14T11:10:02.693Z,252
2016-08-14T11:11:02.723Z,240
2016-08-14T11:12:02.047Z,244
2016-08-14T11:13:02.078Z,240
2016-08-14T11:14:02.123Z,236
2016-08-14T11:15:02.855Z,236
2016-08-14T11:16:02.889Z,236
2016-08-14T11:17:02.221Z,228
2016-08-14T11:18:02.986Z,228
2016-08-14T11:19:02.279Z,224
2016-08-14T11:20:02.329Z,172
2016-08-14T11:21:02.341Z,68
2016-08-14T11:22:03.211Z,68
2016-08-14T11:23:03.110Z,60
2016-08-14T11:24:03.149Z,248
2016-08-14T11:25:02.470Z,248
2016-08-14T11:26:02.504Z,244
2016-08-14T11:27:02.536Z,240
2016-08-14T11:28:02.564Z,232
2016-08-14T11:29:03.309Z,232
2016-08-14T11:30:03.369Z,232
2016-08-14T11:31:02.667Z,232
2016-08-14T11:32:02.701Z,236
2016-08-14T11:33:02.730Z,224
2016-08-14T11:34:03.475Z,236
2016-08-14T11:35:02.796Z,236
2016-08-14T11:36:02.838Z,96
2016-08-14T11:37:02.874Z,144
2016-08-14T11:38:02.893Z,240
2016-08-14T11:39:02.929Z,240
2016-08-14T11:40:03.098Z,236
2016-08-14T11:41:03.703Z,232
2016-08-14T11:42:03.037Z,236
2016-08-14T11:43:03.814Z,236
2016-08-14T11:44:03.855Z,232
2016-08-14T11:45:03.132Z,228
2016-08-14T11:46:03.955Z,232
2016-08-14T11:47:03.906Z,240
2016-08-14T11:48:03.234Z,236
2016-08-14T11:49:04.406Z,228
2016-08-14T11:50:04.003Z,228
2016-08-14T11:51:03.316Z,224
2016-08-14T11:52:04.073Z,220
2016-08-14T11:53:03.384Z,216
2016-08-14T11:54:04.865Z,216
2016-08-14T11:55:04.876Z,224
2016-08-14T11:56:04.199Z,232
2016-08-14T11:57:03.535Z,232
2016-08-14T11:58:03.547Z,228
2016-08-14T11:59:03.579Z,232
2016-08-14T12:00:04.326Z,224
2016-08-14T12:01:03.647Z,216
2016-08-14T12:02:03.674Z,208
2016-08-14T12:03:05.144Z,216
2016-08-14T12:04:03.747Z,216
2016-08-14T12:05:03.776Z,208
2016-08-14T12:06:03.815Z,208
2016-08-14T12:07:03.841Z,204
2016-08-14T12:08:04.585Z,204
2016-08-14T12:09:04.641Z,204
2016-08-14T12:10:03.947Z,204
2016-08-14T12:11:03.973Z,200
2016-08-14T12:12:04.006Z,200
2016-08-14T12:13:04.045Z,56
2016-08-14T12:14:04.078Z,172
2016-08-14T12:15:05.523Z,196
2016-08-14T12:16:04.850Z,192
2016-08-14T12:17:04.182Z,128
2016-08-14T12:18:05.623Z,96
2016-08-14T12:19:04.957Z,168
2016-08-14T12:20:04.276Z,52
2016-08-14T12:21:04.316Z,80
2016-08-14T12:22:04.337Z,216
2016-08-14T12:23:05.078Z,200
2016-08-14T12:24:04.401Z,200
2016-08-14T12:25:05.148Z,60
2016-08-14T12:26:04.482Z,48
2016-08-14T12:27:05.226Z,52
2016-08-14T12:28:05.251Z,196
2016-08-14T12:29:04.565Z,196
2016-08-14T12:30:04.634Z,200
2016-08-14T12:31:04.646Z,200
2016-08-14T12:32:05.373Z,88
2016-08-14T12:33:04.700Z,172
2016-08-14T12:34:05.438Z,80
2016-08-14T12:35:05.649Z,64
2016-08-14T12:36:04.791Z,56
2016-08-14T12:37:04.836Z,64
2016-08-14T12:38:04.858Z,212
2016-08-14T12:39:04.893Z,156
2016-08-14T12:40:04.931Z,204
2016-08-14T12:41:06.398Z,208
2016-08-14T12:42:05.708Z,208
2016-08-14T12:43:05.754Z,204
2016-08-14T12:44:05.771Z,204
2016-08-14T12:45:05.088Z,200
2016-08-14T12:46:05.128Z,200
2016-08-14T12:47:05.156Z,196
2016-08-14T12:48:05.900Z,196
2016-08-14T12:49:05.215Z,200
2016-08-14T12:50:05.979Z,200
2016-08-14T12:51:06.006Z,192
2016-08-14T12:52:06.023Z,192
2016-08-14T12:53:06.081Z,188
2016-08-14T12:54:06.180Z,188
2016-08-14T12:55:05.430Z,188
2016-08-14T12:56:05.455Z,188
2016-08-14T12:57:05.478Z,188
2016-08-14T12:58:05.510Z,188
2016-08-14T12:59:05.558Z,200
2016-08-14T13:00:05.576Z,188
2016-08-14T13:01:06.343Z,168
2016-08-14T13:02:05.662Z,72
2016-08-14T13:03:05.680Z,192
2016-08-14T13:04:05.703Z,184
2016-08-14T13:05:06.461Z,148
2016-08-14T13:06:06.483Z,124
2016-08-14T13:07:05.820Z,188
2016-08-14T13:08:05.836Z,184
2016-08-14T13:09:06.582Z,184
2016-08-14T13:10:06.617Z,184
2016-08-14T13:11:06.645Z,180
2016-08-14T13:12:06.675Z,180
2016-08-14T13:13:06.007Z,116
2016-08-14T13:14:06.034Z,132
2016-08-14T13:15:06.079Z,180
2016-08-14T13:16:06.098Z,180
2016-08-14T13:17:06.142Z,180
2016-08-14T13:18:06.163Z,176
2016-08-14T13:19:10.062Z,176
2016-08-14T13:20:06.946Z,176
2016-08-14T13:21:06.971Z,176
2016-08-14T13:22:06.296Z,176
2016-08-14T13:23:06.339Z,184
2016-08-14T13:24:07.812Z,96
2016-08-14T13:25:07.817Z,168
2016-08-14T13:26:07.158Z,172
2016-08-14T13:27:07.256Z,176
2016-08-14T13:28:06.510Z,72
2016-08-14T13:29:06.531Z,112
2016-08-14T13:30:06.567Z,172
2016-08-14T13:31:06.592Z,168
2016-08-14T13:32:07.333Z,140
2016-08-14T13:33:07.373Z,176
2016-08-14T13:34:06.712Z,104
2016-08-14T13:35:06.720Z,68
2016-08-14T13:36:06.755Z,168
2016-08-14T13:37:07.514Z,172
2016-08-14T13:38:07.537Z,176
2016-08-14T13:39:06.858Z,144
2016-08-14T13:40:06.887Z,164
2016-08-14T13:41:06.924Z,160
2016-08-14T13:42:06.948Z,60
2016-08-14T13:43:06.984Z,92
2016-08-14T13:44:07.033Z,60
2016-08-14T13:45:07.052Z,64
2016-08-14T13:46:07.084Z,124
2016-08-14T13:47:07.116Z,56
2016-08-14T13:48:07.152Z,60
2016-08-14T13:49:07.181Z,160
2016-08-14T13:50:07.213Z,148
2016-08-14T13:51:07.262Z,148
2016-08-14T13:52:07.992Z,156
2016-08-14T13:53:08.027Z,156
2016-08-14T13:54:07.352Z,152
2016-08-14T13:55:08.091Z,156
2016-08-14T13:56:07.418Z,152
2016-08-14T13:57:08.868Z,148
2016-08-14T13:58:07.480Z,152
2016-08-14T13:59:08.942Z,152
2016-08-14T14:00:07.545Z,84
2016-08-14T14:01:08.287Z,144
2016-08-14T14:02:08.333Z,148
2016-08-14T14:03:07.650Z,60
2016-08-14T14:04:07.681Z,152
2016-08-14T14:05:07.711Z,116
2016-08-14T14:06:08.481Z,144
2016-08-14T14:07:07.773Z,140
2016-08-14T14:08:07.821Z,140
2016-08-14T14:09:07.839Z,136
2016-08-14T14:10:09.306Z,124
2016-08-14T14:11:09.360Z,136
2016-08-14T14:12:07.935Z,128